createdAt,value
2022-08-03T00:01:27.365Z,100817.91
2022-08-03T00:03:53.751Z,100817.56
2022-08-03T00:06:20.061Z,100815.41
2022-08-03T00:08:46.393Z,100815.63
2022-08-03T00:11:12.691Z,100820.31
2022-08-03T00:13:39.007Z,100817.22
2022-08-03T00:16:05.661Z,100816.19
2022-08-03T00:18:32.085Z,100812.78
2022-08-03T00:20:58.427Z,100810.91
2022-08-03T00:23:24.749Z,100809.28
2022-08-03T00:25:51.162Z,100813.22
2022-08-03T00:28:17.505Z,100809.13
2022-08-03T00:30:44.761Z,100809.88
2022-08-03T00:33:11.095Z,100804.88
2022-08-03T00:35:50.235Z,100802.38
2022-08-03T00:38:18.331Z,100805.63
2022-08-03T00:40:44.661Z,100813.63
2022-08-03T00:43:11.009Z,100805.00
2022-08-03T00:45:39.465Z,100804.44
2022-08-03T00:48:31.022Z,100801.16
2022-08-03T00:50:54.595Z,100802.03
2022-08-03T00:53:21.475Z,100799.34
2022-08-03T00:55:47.861Z,100800.91
2022-08-03T00:58:14.251Z,100795.19
2022-08-03T01:00:41.032Z,100804.31
2022-08-03T01:03:11.018Z,100803.19
2022-08-03T01:05:50.584Z,100794.97
2022-08-03T01:08:45.436Z,100790.34
2022-08-03T01:11:18.974Z,100802.53
2022-08-03T01:14:01.365Z,100791.72
2022-08-03T01:16:44.388Z,100800.94
2022-08-03T01:19:28.915Z,100792.97
2022-08-03T01:22:07.201Z,100805.78
2022-08-03T01:24:55.105Z,100791.09
2022-08-03T01:27:26.628Z,100796.97
2022-08-03T01:30:11.540Z,100786.50
2022-08-03T01:32:58.207Z,100792.72
2022-08-03T01:35:42.747Z,100795.28
2022-08-03T01:38:17.887Z,100793.41
2022-08-03T01:40:46.275Z,100790.78
2022-08-03T01:44:26.681Z,100802.28
2022-08-03T01:46:04.023Z,100789.59
2022-08-03T01:48:31.589Z,100798.59
2022-08-03T01:50:59.941Z,100792.41
2022-08-03T01:53:27.505Z,100790.50
2022-08-03T01:55:56.339Z,100789.59
2022-08-03T01:58:24.922Z,100789.91
2022-08-03T02:00:52.064Z,100788.94
2022-08-03T02:03:20.950Z,100789.84
2022-08-03T02:05:54.099Z,100791.84
2022-08-03T02:08:33.684Z,100794.31
2022-08-03T02:11:02.280Z,100800.69
2022-08-03T02:13:28.867Z,100795.84
2022-08-03T02:15:56.815Z,100786.81
2022-08-03T02:18:25.538Z,100781.47
2022-08-03T02:20:52.199Z,100784.00
2022-08-03T02:23:18.655Z,100776.91
2022-08-03T02:25:49.355Z,100782.28
2022-08-03T02:28:19.083Z,100780.41
2022-08-03T02:30:53.691Z,100780.16
2022-08-03T02:33:28.353Z,100787.00
2022-08-03T02:35:56.218Z,100784.06
2022-08-03T02:38:28.126Z,100769.88
2022-08-03T02:40:57.088Z,100771.25
2022-08-03T02:43:25.308Z,100776.03
2022-08-03T02:45:53.373Z,100770.38
2022-08-03T02:48:26.744Z,100772.69
2022-08-03T02:50:53.864Z,100774.00
2022-08-03T02:53:22.234Z,100776.59
2022-08-03T02:55:49.949Z,100772.94
2022-08-03T02:58:19.207Z,100766.53
2022-08-03T03:00:46.110Z,100770.56
2022-08-03T03:03:13.889Z,100767.75
2022-08-03T03:05:55.137Z,100770.69
2022-08-03T03:08:25.938Z,100766.09
2022-08-03T03:10:57.570Z,100771.31
2022-08-03T03:13:24.767Z,100764.09
2022-08-03T03:15:53.476Z,100775.41
2022-08-03T03:18:22.827Z,100765.84
2022-08-03T03:20:52.846Z,100768.41
2022-08-03T03:23:21.364Z,100767.81
2022-08-03T03:25:48.677Z,100771.31
2022-08-03T03:28:15.367Z,100773.38
2022-08-03T03:30:42.133Z,100773.81
2022-08-03T03:33:08.661Z,100776.31
2022-08-03T03:35:37.212Z,100779.22
2022-08-03T03:38:06.932Z,100776.03
2022-08-03T03:40:35.623Z,100775.53
2022-08-03T03:43:02.681Z,100780.03
2022-08-03T03:45:31.035Z,100771.78
2022-08-03T03:47:59.974Z,100770.19
2022-08-03T03:50:28.024Z,100768.84
2022-08-03T03:52:54.368Z,100774.56
2022-08-03T03:55:20.681Z,100763.69
2022-08-03T03:57:46.997Z,100766.81
2022-08-03T04:00:14.972Z,100766.47
2022-08-03T04:02:41.311Z,100761.19
2022-08-03T04:05:09.343Z,100768.28
2022-08-03T04:08:18.024Z,100766.47
2022-08-03T04:11:02.691Z,100761.97
2022-08-03T04:13:42.297Z,100761.72
2022-08-03T04:16:12.426Z,100769.09
2022-08-03T04:18:41.235Z,100772.75
2022-08-03T04:21:11.150Z,100773.44
2022-08-03T04:23:41.288Z,100777.31
2022-08-03T04:26:10.911Z,100774.13
2022-08-03T04:28:40.870Z,100780.03
2022-08-03T04:31:07.897Z,100781.19
2022-08-03T04:33:36.897Z,100783.59
2022-08-03T04:36:06.653Z,100784.88
2022-08-03T04:38:37.371Z,100787.69
2022-08-03T04:41:04.084Z,100794.94
2022-08-03T04:43:33.368Z,100797.31
2022-08-03T04:46:00.868Z,100801.94
2022-08-03T04:48:27.696Z,100793.47
2022-08-03T04:50:54.558Z,100794.81
2022-08-03T04:53:21.287Z,100795.78
2022-08-03T04:55:48.149Z,100798.00
2022-08-03T04:58:14.453Z,100795.41
2022-08-03T05:00:40.774Z,100790.13
2022-08-03T05:03:20.237Z,100792.97
2022-08-03T05:06:09.532Z,100798.88
2022-08-03T05:08:46.395Z,100797.44
2022-08-03T05:11:15.272Z,100800.63
2022-08-03T05:13:41.624Z,100803.44
2022-08-03T05:16:08.008Z,100799.81
2022-08-03T05:18:34.338Z,100797.69
2022-08-03T05:21:00.662Z,100796.94
2022-08-03T05:23:27.033Z,100791.06
2022-08-03T05:25:53.384Z,100791.28
2022-08-03T05:28:19.680Z,100798.41
2022-08-03T05:30:46.001Z,100798.22
2022-08-03T05:33:12.320Z,100796.63
2022-08-03T05:35:57.301Z,100790.63
2022-08-03T05:38:28.667Z,100794.00
2022-08-03T05:40:57.341Z,100790.72
2022-08-03T05:43:43.009Z,100796.88
2022-08-03T05:46:12.854Z,100793.69
2022-08-03T05:48:39.928Z,100785.50
2022-08-03T05:51:06.301Z,100785.88
2022-08-03T05:53:35.711Z,100790.38
2022-08-03T05:56:14.610Z,100796.88
2022-08-03T05:58:47.007Z,100781.22
2022-08-03T06:01:14.169Z,100785.13
2022-08-03T06:03:40.532Z,100789.34
2022-08-03T06:06:06.896Z,100784.91
2022-08-03T06:08:34.190Z,100788.88
2022-08-03T06:11:00.651Z,100784.19
2022-08-03T06:13:26.962Z,100780.41
2022-08-03T06:15:53.512Z,100791.41
2022-08-03T06:18:19.844Z,100787.34
2022-08-03T06:20:47.117Z,100789.34
2022-08-03T06:23:17.706Z,100789.19
2022-08-03T06:25:44.527Z,100791.44
2022-08-03T06:28:19.013Z,100789.34
2022-08-03T06:30:50.950Z,100788.63
2022-08-03T06:33:17.247Z,100790.09
2022-08-03T06:35:45.185Z,100791.41
2022-08-03T06:38:11.655Z,100790.47
2022-08-03T06:40:37.968Z,100796.41
2022-08-03T06:43:04.269Z,100795.16
2022-08-03T06:45:32.103Z,100801.34
2022-08-03T06:48:08.657Z,100805.41
2022-08-03T06:50:36.388Z,100798.94
2022-08-03T06:53:04.139Z,100805.44
2022-08-03T06:55:31.449Z,100809.81
2022-08-03T06:58:00.012Z,100812.38
2022-08-03T07:00:29.836Z,100820.88
2022-08-03T07:02:58.273Z,100818.84
2022-08-03T07:05:25.083Z,100818.63
2022-08-03T07:07:54.927Z,100816.56
2022-08-03T07:10:21.247Z,100813.50
2022-08-03T07:12:55.557Z,100817.19
2022-08-03T07:15:55.082Z,100818.63
2022-08-03T07:18:10.257Z,100815.56
2022-08-03T07:20:36.661Z,100820.63
2022-08-03T07:23:03.186Z,100812.66
2022-08-03T07:25:29.506Z,100815.09
2022-08-03T07:27:55.836Z,100822.00
2022-08-03T07:30:22.962Z,100814.78
2022-08-03T07:32:50.563Z,100828.66
2022-08-03T07:35:22.596Z,100825.78
2022-08-03T07:37:54.742Z,100824.00
2022-08-03T07:40:21.838Z,100825.47
2022-08-03T07:42:48.144Z,100825.25
2022-08-03T07:45:19.148Z,100828.53
2022-08-03T07:47:46.243Z,100826.88
2022-08-03T07:50:20.225Z,100817.34
2022-08-03T07:52:46.548Z,100819.50
2022-08-03T07:55:12.878Z,100820.06
2022-08-03T07:57:39.205Z,100816.63
2022-08-03T08:00:08.333Z,100816.69
2022-08-03T08:02:34.926Z,100820.22
2022-08-03T08:05:05.517Z,100820.59
2022-08-03T08:07:32.372Z,100812.72
2022-08-03T08:09:58.680Z,100821.00
2022-08-03T08:12:25.076Z,100820.53
2022-08-03T08:14:51.384Z,100816.78
2022-08-03T08:17:17.700Z,100816.28
2022-08-03T08:19:51.664Z,100814.31
2022-08-03T08:22:18.658Z,100822.03
2022-08-03T08:24:52.202Z,100809.31
2022-08-03T08:27:18.769Z,100817.28
2022-08-03T08:29:47.723Z,100807.38
2022-08-03T08:32:21.709Z,100809.53
2022-08-03T08:34:48.009Z,100805.34
2022-08-03T08:37:14.344Z,100798.84
2022-08-03T08:39:40.648Z,100806.28
2022-08-03T08:42:07.024Z,100804.25
2022-08-03T08:44:33.338Z,100807.91
2022-08-03T08:47:02.817Z,100812.28
2022-08-03T08:49:31.241Z,100810.94
2022-08-03T08:52:01.197Z,100804.81
2022-08-03T08:54:29.534Z,100807.50
2022-08-03T08:56:57.127Z,100813.91
2022-08-03T08:59:24.648Z,100812.81
2022-08-03T09:01:51.124Z,100802.97
2022-08-03T09:04:17.698Z,100801.78
2022-08-03T09:06:58.635Z,100805.34
2022-08-03T09:10:05.941Z,100811.31
2022-08-03T09:12:39.165Z,100810.03
2022-08-03T09:15:33.866Z,100800.03
2022-08-03T09:18:02.583Z,100796.78
2022-08-03T09:20:31.147Z,100793.75
2022-08-03T09:23:43.791Z,100799.00
2022-08-03T09:25:58.529Z,100797.06
2022-08-03T09:29:00.177Z,100792.25
2022-08-03T09:31:32.737Z,100803.84
2022-08-03T09:34:02.451Z,100794.53
2022-08-03T09:36:48.599Z,100795.16
2022-08-03T09:39:21.748Z,100805.22
2022-08-03T09:42:11.076Z,100805.84
2022-08-03T09:44:49.336Z,100786.38
2022-08-03T09:47:28.472Z,100790.63
2022-08-03T09:50:03.849Z,100791.78
2022-08-03T09:52:52.283Z,100792.44
2022-08-03T09:56:35.080Z,100786.47
2022-08-03T09:58:06.623Z,100787.38
2022-08-03T10:00:32.971Z,100787.13
2022-08-03T10:03:04.339Z,100793.88
2022-08-03T10:05:33.689Z,100781.81
2022-08-03T10:07:59.986Z,100782.44
2022-08-03T10:10:29.890Z,100775.53
2022-08-03T10:12:59.812Z,100769.78
2022-08-03T10:16:22.547Z,100774.53
2022-08-03T10:18:13.092Z,100773.78
2022-08-03T10:21:08.257Z,100782.16
2022-08-03T10:23:35.693Z,100776.38
2022-08-03T10:26:04.119Z,100774.19
2022-08-03T10:28:37.589Z,100775.13
2022-08-03T10:31:06.754Z,100764.53
2022-08-03T10:33:51.912Z,100771.84
2022-08-03T10:36:23.572Z,100768.91
2022-08-03T10:38:52.843Z,100763.19
2022-08-03T10:41:25.738Z,100756.03
2022-08-03T10:44:25.825Z,100766.03
2022-08-03T10:46:52.979Z,100767.06
2022-08-03T10:49:33.658Z,100760.25
2022-08-03T10:52:02.651Z,100759.72
2022-08-03T10:54:39.681Z,100754.09
2022-08-03T10:57:42.217Z,100755.06
2022-08-03T11:00:09.460Z,100752.78
2022-08-03T11:03:13.621Z,100757.66
2022-08-03T11:05:47.889Z,100748.78
2022-08-03T11:08:31.908Z,100754.56
2022-08-03T11:11:01.612Z,100750.16
2022-08-03T11:13:30.051Z,100754.25
2022-08-03T11:16:00.171Z,100752.41
2022-08-03T11:18:28.508Z,100744.59
2022-08-03T11:20:57.184Z,100751.97
2022-08-03T11:24:02.549Z,100745.19
2022-08-03T11:26:32.657Z,100747.59
2022-08-03T11:29:28.840Z,100743.47
2022-08-03T11:31:55.307Z,100729.78
2022-08-03T11:34:21.618Z,100742.69
2022-08-03T11:37:21.372Z,100726.59
2022-08-03T11:39:50.294Z,100738.53
2022-08-03T11:42:22.493Z,100731.09
2022-08-03T11:44:57.680Z,100731.63
2022-08-03T11:47:29.314Z,100726.75
2022-08-03T11:49:58.057Z,100718.03
2022-08-03T11:52:26.736Z,100723.34
2022-08-03T11:54:57.205Z,100726.38
2022-08-03T11:59:16.562Z,100721.38
2022-08-03T12:00:23.769Z,100721.63
2022-08-03T12:02:56.951Z,100724.19
2022-08-03T12:05:51.814Z,100726.69
2022-08-03T12:08:39.463Z,100728.44
2022-08-03T12:11:07.713Z,100721.81
2022-08-03T12:14:45.506Z,100719.84
2022-08-03T12:16:25.119Z,100717.75
2022-08-03T12:18:55.778Z,100724.22
2022-08-03T12:21:22.095Z,100715.63
2022-08-03T12:23:48.468Z,100712.47
2022-08-03T12:26:14.780Z,100718.97
2022-08-03T12:28:49.951Z,100714.81
2022-08-03T12:31:16.400Z,100711.03
2022-08-03T12:34:02.382Z,100718.13
2022-08-03T12:36:30.707Z,100717.69
2022-08-03T12:39:01.073Z,100707.56
2022-08-03T12:41:30.143Z,100704.56
2022-08-03T12:43:56.663Z,100706.44
2022-08-03T12:46:23.180Z,100705.00
2022-08-03T12:49:09.202Z,100714.41
2022-08-03T12:51:38.348Z,100705.44
2022-08-03T12:54:05.950Z,100704.03
2022-08-03T12:56:32.271Z,100702.66
2022-08-03T12:58:58.588Z,100704.94
2022-08-03T13:01:26.093Z,100702.78
2022-08-03T13:03:52.651Z,100704.31
2022-08-03T13:06:25.933Z,100684.41
2022-08-03T13:09:02.027Z,100701.63
2022-08-03T13:11:50.539Z,100695.88
2022-08-03T13:14:20.170Z,100684.59
2022-08-03T13:16:47.911Z,100698.22
2022-08-03T13:19:15.486Z,100690.84
2022-08-03T13:21:53.562Z,100684.41
2022-08-03T13:24:29.453Z,100688.66
2022-08-03T13:26:56.915Z,100690.03
2022-08-03T13:29:23.223Z,100684.09
2022-08-03T13:31:50.524Z,100688.34
2022-08-03T13:34:22.253Z,100688.72
2022-08-03T13:39:48.085Z,100688.59
2022-08-03T13:42:23.146Z,100681.88
2022-08-03T13:44:50.046Z,100676.09
2022-08-03T13:47:16.397Z,100677.97
2022-08-03T13:49:54.223Z,100669.38
2022-08-03T13:52:47.253Z,100663.16
2022-08-03T13:55:34.181Z,100661.97
2022-08-03T13:58:20.815Z,100665.50
2022-08-03T14:01:07.471Z,100665.78
2022-08-03T14:03:54.176Z,100659.03
2022-08-03T14:06:41.165Z,100653.56
2022-08-03T14:09:32.578Z,100663.94
2022-08-03T14:12:07.830Z,100663.22
2022-08-03T14:14:35.168Z,100655.72
2022-08-03T14:17:01.531Z,100646.53
2022-08-03T14:19:28.906Z,100647.13
2022-08-03T14:22:03.699Z,100647.97
2022-08-03T14:24:33.283Z,100639.84
2022-08-03T14:27:05.918Z,100640.47
2022-08-03T14:29:35.474Z,100645.22
2022-08-03T14:32:11.751Z,100641.84
2022-08-03T14:34:58.243Z,100641.13
2022-08-03T14:37:44.883Z,100635.56
2022-08-03T14:40:32.026Z,100644.38
2022-08-03T14:43:19.060Z,100640.53
2022-08-03T14:46:05.699Z,100637.78
2022-08-03T14:50:28.402Z,100633.22
2022-08-03T14:52:00.328Z,100637.00
2022-08-03T14:54:47.238Z,100632.25
2022-08-03T14:57:34.205Z,100626.69
2022-08-03T15:00:20.888Z,100632.41
2022-08-03T15:03:07.715Z,100629.34
2022-08-03T15:05:56.360Z,100628.88
2022-08-03T15:08:51.384Z,100616.75
2022-08-03T15:11:48.646Z,100617.06
2022-08-03T15:14:15.259Z,100617.78
2022-08-03T15:16:41.648Z,100619.69
2022-08-03T15:20:02.797Z,100610.34
2022-08-03T15:21:54.320Z,100609.44
2022-08-03T15:24:21.066Z,100603.69
2022-08-03T15:26:47.389Z,100599.97
2022-08-03T15:30:05.918Z,100604.72
2022-08-03T15:32:00.049Z,100608.47
2022-08-03T15:34:26.463Z,100606.81
2022-08-03T15:36:52.820Z,100601.16
2022-08-03T15:39:19.225Z,100600.19
2022-08-03T15:41:45.628Z,100598.13
2022-08-03T15:44:11.981Z,100599.19
2022-08-03T15:46:38.316Z,100599.22
2022-08-03T15:49:04.633Z,100594.66
2022-08-03T15:51:30.936Z,100596.44
2022-08-03T15:53:57.252Z,100593.09
2022-08-03T15:56:23.575Z,100592.94
2022-08-03T15:59:09.648Z,100590.19
2022-08-03T16:01:39.632Z,100594.03
2022-08-03T16:04:06.744Z,100590.34
2022-08-03T16:06:35.799Z,100589.47
2022-08-03T16:09:04.645Z,100591.47
2022-08-03T16:11:31.074Z,100585.75
2022-08-03T16:14:12.447Z,100590.44
2022-08-03T16:16:43.737Z,100594.25
2022-08-03T16:19:10.067Z,100588.06
2022-08-03T16:21:42.025Z,100585.75
2022-08-03T16:24:15.405Z,100585.50
2022-08-03T16:26:43.884Z,100592.03
2022-08-03T16:29:22.360Z,100596.75
2022-08-03T16:31:50.921Z,100595.69
2022-08-03T16:34:18.415Z,100588.19
2022-08-03T16:36:45.500Z,100591.63
2022-08-03T16:39:30.888Z,100584.22
2022-08-03T16:42:01.109Z,100591.38
2022-08-03T16:44:30.303Z,100594.59
2022-08-03T16:46:56.954Z,100596.63
2022-08-03T16:49:56.102Z,100589.13
2022-08-03T16:52:09.565Z,100585.44
2022-08-03T16:54:39.419Z,100592.88
2022-08-03T16:57:07.046Z,100587.88
2022-08-03T16:59:36.403Z,100585.22
2022-08-03T17:02:08.137Z,100588.25
2022-08-03T17:04:36.697Z,100592.00
2022-08-03T17:07:07.530Z,100592.63
2022-08-03T17:09:38.852Z,100592.06
2022-08-03T17:12:05.744Z,100588.44
2022-08-03T17:14:33.584Z,100590.38
2022-08-03T17:17:03.828Z,100594.34
2022-08-03T17:19:32.393Z,100585.94
2022-08-03T17:22:13.421Z,100586.00
2022-08-03T17:24:49.626Z,100590.44
2022-08-03T17:28:49.098Z,100586.13
2022-08-03T17:30:13.664Z,100589.75
2022-08-03T17:32:52.719Z,100596.69
2022-08-03T17:35:36.558Z,100598.59
2022-08-03T17:38:08.908Z,100591.72
2022-08-03T17:40:39.015Z,100593.50
2022-08-03T17:44:13.511Z,100595.94
2022-08-03T17:46:03.835Z,100597.72
2022-08-03T17:48:34.008Z,100603.50
2022-08-03T17:51:15.410Z,100607.69
2022-08-03T17:53:52.639Z,100603.06
2022-08-03T17:56:46.031Z,100607.66
2022-08-03T17:59:51.400Z,100597.72
2022-08-03T18:02:30.324Z,100608.84
2022-08-03T18:05:15.983Z,100608.00
2022-08-03T18:07:49.499Z,100599.09
2022-08-03T18:10:25.860Z,100608.53
2022-08-03T18:13:10.541Z,100609.69
2022-08-03T18:15:45.168Z,100607.91
2022-08-03T18:18:16.432Z,100615.34
2022-08-03T18:20:56.660Z,100608.00
2022-08-03T18:23:36.735Z,100609.94
2022-08-03T18:26:11.937Z,100610.28
2022-08-03T18:28:39.095Z,100602.44
2022-08-03T18:31:06.035Z,100608.25
2022-08-03T18:34:16.482Z,100609.38
2022-08-03T18:36:38.615Z,100611.19
2022-08-03T18:39:05.394Z,100602.34
2022-08-03T18:41:34.569Z,100614.09
2022-08-03T18:44:09.040Z,100611.44
2022-08-03T18:47:07.553Z,100614.06
2022-08-03T18:50:07.361Z,100613.66
2022-08-03T18:52:45.974Z,100611.69
2022-08-03T18:55:35.567Z,100621.06
2022-08-03T18:58:09.368Z,100619.66
2022-08-03T19:00:54.628Z,100620.03
2022-08-03T19:03:24.956Z,100619.13
2022-08-03T19:06:14.601Z,100621.53
2022-08-03T19:09:02.025Z,100631.03
2022-08-03T19:12:25.969Z,100626.22
2022-08-03T19:14:29.502Z,100633.09
2022-08-03T19:17:08.569Z,100630.47
2022-08-03T19:22:22.633Z,100633.38
2022-08-03T19:24:53.598Z,100628.84
2022-08-03T19:27:27.060Z,100637.38
2022-08-03T19:29:58.989Z,100632.13
2022-08-03T19:32:48.370Z,100635.22
2022-08-03T19:35:18.839Z,100647.50
2022-08-03T19:37:45.819Z,100640.22
2022-08-03T19:40:12.612Z,100642.97
2022-08-03T19:42:44.396Z,100638.22
2022-08-03T19:45:15.095Z,100635.78
2022-08-03T19:47:47.683Z,100633.81
2022-08-03T19:50:15.778Z,100637.75
2022-08-03T19:52:46.436Z,100642.84
2022-08-03T19:55:15.105Z,100642.75
2022-08-03T19:57:43.615Z,100645.97
2022-08-03T20:00:13.806Z,100644.47
2022-08-03T20:02:41.333Z,100643.75
2022-08-03T20:05:15.087Z,100636.63
2022-08-03T20:07:47.973Z,100649.38
2022-08-03T20:10:17.289Z,100647.88
2022-08-03T20:12:44.821Z,100649.13
2022-08-03T20:15:11.682Z,100648.63
2022-08-03T20:17:56.521Z,100638.91
2022-08-03T20:20:33.823Z,100649.97
2022-08-03T20:23:06.927Z,100652.91
2022-08-03T20:28:32.643Z,100643.75
2022-08-03T20:30:59.979Z,100642.53
2022-08-03T20:33:46.065Z,100647.28
2022-08-03T20:36:15.819Z,100653.50
2022-08-03T20:38:47.272Z,100660.00
2022-08-03T20:41:15.685Z,100661.25
2022-08-03T20:43:42.092Z,100664.63
2022-08-03T20:46:29.672Z,100671.09
2022-08-03T20:48:56.658Z,100661.66
2022-08-03T20:51:50.225Z,100672.72
2022-08-03T20:57:03.704Z,100668.28
2022-08-03T20:59:34.851Z,100665.06
2022-08-03T21:02:14.017Z,100667.13
2022-08-03T21:04:47.430Z,100671.09
2022-08-03T21:07:20.433Z,100668.81
2022-08-03T21:09:57.082Z,100664.78
2022-08-03T21:12:34.253Z,100667.78
2022-08-03T21:13:06.879Z,100642.47
2022-08-03T21:13:07.723Z,100667.09
2022-08-03T21:13:12.763Z,100630.72
2022-08-03T21:15:07.362Z,100658.25
2022-08-03T21:17:41.024Z,100669.22
2022-08-03T21:20:10.020Z,100665.94
2022-08-03T21:22:39.446Z,100668.47
2022-08-03T21:25:07.961Z,100665.59
2022-08-03T21:27:35.774Z,100663.16
2022-08-03T21:30:06.692Z,100666.41
2022-08-03T21:32:33.701Z,100670.66
2022-08-03T21:35:00.611Z,100666.06
2022-08-03T21:37:28.243Z,100659.13
2022-08-03T21:39:56.009Z,100665.59
2022-08-03T21:42:23.189Z,100665.56
2022-08-03T21:44:54.005Z,100663.19
2022-08-03T21:47:25.013Z,100670.44
2022-08-03T21:50:06.319Z,100655.88
2022-08-03T21:52:41.788Z,100663.25
2022-08-03T21:55:08.590Z,100664.47
2022-08-03T21:57:51.475Z,100662.09
2022-08-03T22:00:20.727Z,100662.34
2022-08-03T22:02:57.161Z,100660.78
2022-08-03T22:05:42.681Z,100664.06
2022-08-03T22:08:12.493Z,100656.81
2022-08-03T22:10:39.412Z,100653.47
2022-08-03T22:13:06.053Z,100657.53
2022-08-03T22:15:32.767Z,100671.75
2022-08-03T22:17:59.602Z,100667.72
2022-08-03T22:20:26.082Z,100662.44
2022-08-03T22:22:56.641Z,100664.91
2022-08-03T22:25:34.891Z,100662.09
2022-08-03T22:28:05.772Z,100671.38
2022-08-03T22:30:32.446Z,100666.09
2022-08-03T22:33:01.568Z,100666.97
2022-08-03T22:35:31.372Z,100671.03
2022-08-03T22:37:58.607Z,100667.34
2022-08-03T22:40:26.216Z,100678.72
2022-08-03T22:42:54.277Z,100678.69
2022-08-03T22:45:45.868Z,100673.88
2022-08-03T22:48:11.032Z,100677.09
2022-08-03T22:50:38.048Z,100679.94
2022-08-03T22:53:06.694Z,100675.06
2022-08-03T22:55:33.197Z,100682.34
2022-08-03T22:57:59.503Z,100673.81
2022-08-03T23:00:25.947Z,100673.84
2022-08-03T23:02:55.394Z,100675.06
2022-08-03T23:06:02.061Z,100675.47
2022-08-03T23:08:15.119Z,100668.97
2022-08-03T23:10:46.665Z,100674.66
2022-08-03T23:13:16.188Z,100666.94
2022-08-03T23:15:45.533Z,100670.59
2022-08-03T23:18:12.140Z,100670.97
2022-08-03T23:20:38.585Z,100671.00
2022-08-03T23:23:05.068Z,100671.69
2022-08-03T23:25:31.745Z,100662.38
2022-08-03T23:28:05.615Z,100666.50
2022-08-03T23:30:34.621Z,100656.72
2022-08-03T23:33:02.668Z,100664.75
2022-08-03T23:36:29.294Z,100669.28
2022-08-03T23:38:22.924Z,100672.50
2022-08-03T23:40:51.164Z,100662.31
2022-08-03T23:43:44.794Z,100668.88
2022-08-03T23:46:07.222Z,100676.25
2022-08-03T23:48:34.022Z,100673.41
2022-08-03T23:51:05.417Z,100677.72
2022-08-03T23:53:41.331Z,100684.66
2022-08-03T23:56:07.740Z,100676.53
2022-08-03T23:58:51.409Z,100670.06
